sensor_id;sensor_type;location;lat;lon;timestamp;pressure;altitude;pressure_sealevel;temperature;humidity
69171;BME280;56279;47.902;12.308;2023-03-13T00:00:58;95150.44;;;4.94;88.69
69171;BME280;56279;47.902;12.308;2023-03-13T00:03:00;95150.44;;;4.94;88.95
69171;BME280;56279;47.902;12.308;2023-03-13T00:05:01;95153.53;;;4.91;88.75
69171;BME280;56279;47.902;12.308;2023-03-13T00:07:03;95149.84;;;4.87;88.76
69171;BME280;56279;47.902;12.308;2023-03-13T00:09:10;95145.56;;;4.81;88.99
69171;BME280;56279;47.902;12.308;2023-03-13T00:11:14;95157.81;;;4.75;88.83
69171;BME280;56279;47.902;12.308;2023-03-13T00:13:16;95144.94;;;4.69;88.62
69171;BME280;56279;47.902;12.308;2023-03-13T00:15:21;95139.88;;;4.62;89.05
69171;BME280;56279;47.902;12.308;2023-03-13T00:17:26;95140.88;;;4.56;89.02
69171;BME280;56279;47.902;12.308;2023-03-13T00:19:27;95137.16;;;4.52;89.20
69171;BME280;56279;47.902;12.308;2023-03-13T00:21:29;95137.38;;;4.51;89.73
69171;BME280;56279;47.902;12.308;2023-03-13T00:23:33;95130.59;;;4.50;89.31
69171;BME280;56279;47.902;12.308;2023-03-13T00:25:35;95130.59;;;4.50;89.43
69171;BME280;56279;47.902;12.308;2023-03-13T00:27:37;95133.69;;;4.47;89.14
69171;BME280;56279;47.902;12.308;2023-03-13T00:29:38;95125.56;;;4.43;89.33
69171;BME280;56279;47.902;12.308;2023-03-13T00:31:40;95122.63;;;4.40;89.61
69171;BME280;56279;47.902;12.308;2023-03-13T00:33:45;95113.72;;;4.36;89.70
69171;BME280;56279;47.902;12.308;2023-03-13T00:35:50;95110.56;;;4.34;89.38
69171;BME280;56279;47.902;12.308;2023-03-13T00:37:52;95108.41;;;4.31;89.58
69171;BME280;56279;47.902;12.308;2023-03-13T00:39:57;95102.09;;;4.27;89.58
69171;BME280;56279;47.902;12.308;2023-03-13T00:42:00;95097.97;;;4.31;89.69
69171;BME280;56279;47.902;12.308;2023-03-13T00:44:11;95095.66;;;4.34;89.39
69171;BME280;56279;47.902;12.308;2023-03-13T00:46:17;95094.09;;;4.33;89.44
69171;BME280;56279;47.902;12.308;2023-03-13T00:48:26;95093.28;;;4.33;89.61
69171;BME280;56279;47.902;12.308;2023-03-13T00:50:29;95096.22;;;4.36;89.82
69171;BME280;56279;47.902;12.308;2023-03-13T00:52:32;95083.69;;;4.38;89.57
69171;BME280;56279;47.902;12.308;2023-03-13T00:54:33;95085.31;;;4.44;89.49
69171;BME280;56279;47.902;12.308;2023-03-13T00:56:35;95081.19;;;4.48;90.14
69171;BME280;56279;47.902;12.308;2023-03-13T01:02:26;95076.56;;;4.55;89.38
69171;BME280;56279;47.902;12.308;2023-03-13T01:04:28;95067.16;;;4.54;89.26
69171;BME280;56279;47.902;12.308;2023-03-13T01:06:34;95064.53;;;4.54;89.38
69171;BME280;56279;47.902;12.308;2023-03-13T01:08:39;95060.66;;;4.57;89.21
69171;BME280;56279;47.902;12.308;2023-03-13T01:10:43;95058.84;;;4.57;89.12
69171;BME280;56279;47.902;12.308;2023-03-13T01:12:47;95055.13;;;4.53;89.17
69171;BME280;56279;47.902;12.308;2023-03-13T01:14:50;95045.66;;;4.47;89.38
69171;BME280;56279;47.902;12.308;2023-03-13T01:16:51;95040.91;;;4.44;88.98
69171;BME280;56279;47.902;12.308;2023-03-13T01:18:54;95035.44;;;4.46;89.45
69171;BME280;56279;47.902;12.308;2023-03-13T01:20:58;95035.50;;;4.51;89.52
69171;BME280;56279;47.902;12.308;2023-03-13T01:23:00;95036.34;;;4.56;89.15
69171;BME280;56279;47.902;12.308;2023-03-13T01:25:01;95029.84;;;4.59;88.90
69171;BME280;56279;47.902;12.308;2023-03-13T01:27:04;95031.19;;;4.61;88.68
69171;BME280;56279;47.902;12.308;2023-03-13T01:29:05;95022.28;;;4.62;88.72
69171;BME280;56279;47.902;12.308;2023-03-13T01:31:15;95014.69;;;4.61;88.52
69171;BME280;56279;47.902;12.308;2023-03-13T01:33:18;95017.31;;;4.61;88.49
69171;BME280;56279;47.902;12.308;2023-03-13T01:35:21;95005.84;;;4.62;88.57
69171;BME280;56279;47.902;12.308;2023-03-13T01:37:22;95016.28;;;4.62;88.36
69171;BME280;56279;47.902;12.308;2023-03-13T01:39:23;95014.22;;;4.64;88.54
69171;BME280;56279;47.902;12.308;2023-03-13T01:41:26;95004.84;;;4.68;88.38
69171;BME280;56279;47.902;12.308;2023-03-13T01:43:34;95008.25;;;4.68;88.47
69171;BME280;56279;47.902;12.308;2023-03-13T01:45:52;95013.47;;;4.68;88.42
69171;BME280;56279;47.902;12.308;2023-03-13T01:48:03;95008.00;;;4.70;87.90
69171;BME280;56279;47.902;12.308;2023-03-13T01:50:20;95010.91;;;4.73;87.98
69171;BME280;56279;47.902;12.308;2023-03-13T01:52:27;95015.88;;;4.75;87.42
69171;BME280;56279;47.902;12.308;2023-03-13T01:54:51;95013.81;;;4.77;87.54
69171;BME280;56279;47.902;12.308;2023-03-13T01:57:04;95006.72;;;4.72;87.71
69171;BME280;56279;47.902;12.308;2023-03-13T01:59:09;95011.69;;;4.74;87.78
69171;BME280;56279;47.902;12.308;2023-03-13T02:01:20;95006.22;;;4.75;87.64
69171;BME280;56279;47.902;12.308;2023-03-13T02:03:23;95006.22;;;4.75;87.46
69171;BME280;56279;47.902;12.308;2023-03-13T02:05:26;95002.00;;;4.74;87.52
69171;BME280;56279;47.902;12.308;2023-03-13T02:07:38;95004.41;;;4.76;87.53
69171;BME280;56279;47.902;12.308;2023-03-13T02:09:50;95000.72;;;4.77;87.19
69171;BME280;56279;47.902;12.308;2023-03-13T02:11:58;94999.41;;;4.74;87.24
69171;BME280;56279;47.902;12.308;2023-03-13T02:14:04;94997.53;;;4.70;87.40
69171;BME280;56279;47.902;12.308;2023-03-13T02:16:12;94991.50;;;4.64;87.10
69171;BME280;56279;47.902;12.308;2023-03-13T02:18:14;94986.44;;;4.58;87.49
69171;BME280;56279;47.902;12.308;2023-03-13T02:20:18;94992.66;;;4.52;87.44
69171;BME280;56279;47.902;12.308;2023-03-13T02:22:44;94992.06;;;4.45;87.80
69171;BME280;56279;47.902;12.308;2023-03-13T02:24:57;94987.25;;;4.32;87.58
69171;BME280;56279;47.902;12.308;2023-03-13T02:27:10;94992.31;;;4.16;88.06
69171;BME280;56279;47.902;12.308;2023-03-13T02:29:23;94996.63;;;4.06;87.68
69171;BME280;56279;47.902;12.308;2023-03-13T02:31:32;94999.13;;;3.96;88.41
69171;BME280;56279;47.902;12.308;2023-03-13T02:33:41;94984.91;;;3.87;88.86
69171;BME280;56279;47.902;12.308;2023-03-13T02:35:49;94984.59;;;3.83;88.76
69171;BME280;56279;47.902;12.308;2023-03-13T02:37:55;94985.66;;;3.82;88.78
69171;BME280;56279;47.902;12.308;2023-03-13T02:40:02;94982.00;;;3.83;89.18
69171;BME280;56279;47.902;12.308;2023-03-13T02:42:06;94980.44;;;3.82;89.04
69171;BME280;56279;47.902;12.308;2023-03-13T02:44:11;94973.63;;;3.81;89.29
69171;BME280;56279;47.902;12.308;2023-03-13T02:46:18;94982.50;;;3.80;88.95
69171;BME280;56279;47.902;12.308;2023-03-13T02:48:40;94984.00;;;3.76;88.93
69171;BME280;56279;47.902;12.308;2023-03-13T02:50:45;94991.47;;;3.68;88.62
69171;BME280;56279;47.902;12.308;2023-03-13T02:53:00;94998.84;;;3.54;88.83
69171;BME280;56279;47.902;12.308;2023-03-13T02:55:10;94994.53;;;3.43;89.32
69171;BME280;56279;47.902;12.308;2023-03-13T02:57:12;94989.47;;;3.36;89.75
69171;BME280;56279;47.902;12.308;2023-03-13T02:59:14;94984.16;;;3.31;89.70
69171;BME280;56279;47.902;12.308;2023-03-13T03:01:19;95004.72;;;3.28;89.64
69171;BME280;56279;47.902;12.308;2023-03-13T03:03:21;95007.59;;;3.26;89.73
69171;BME280;56279;47.902;12.308;2023-03-13T03:05:23;95001.03;;;3.24;90.14
69171;BME280;56279;47.902;12.308;2023-03-13T03:07:24;95004.91;;;3.21;89.76
69171;BME280;56279;47.902;12.308;2023-03-13T03:09:27;95017.84;;;3.16;90.10
69171;BME280;56279;47.902;12.308;2023-03-13T03:11:33;95017.31;;;3.14;89.90
69171;BME280;56279;47.902;12.308;2023-03-13T03:13:39;95009.94;;;3.11;90.16
69171;BME280;56279;47.902;12.308;2023-03-13T03:15:40;95012.81;;;3.10;90.61
69171;BME280;56279;47.902;12.308;2023-03-13T03:17:41;95030.72;;;3.06;90.73
69171;BME280;56279;47.902;12.308;2023-03-13T03:19:43;95028.38;;;3.05;90.53
69171;BME280;56279;47.902;12.308;2023-03-13T03:21:46;95024.97;;;3.04;90.03
69171;BME280;56279;47.902;12.308;2023-03-13T03:23:53;95023.63;;;3.02;90.24
69171;BME280;56279;47.902;12.308;2023-03-13T03:25:54;95027.03;;;3.02;91.13
69171;BME280;56279;47.902;12.308;2023-03-13T03:27:55;95033.81;;;3.03;90.91
69171;BME280;56279;47.902;12.308;2023-03-13T03:29:59;95024.97;;;3.04;90.79
69171;BME280;56279;47.902;12.308;2023-03-13T03:32:02;95025.22;;;3.03;90.55
69171;BME280;56279;47.902;12.308;2023-03-13T03:34:04;95039.03;;;3.03;90.69
69171;BME280;56279;47.902;12.308;2023-03-13T03:36:08;95036.19;;;3.05;90.91
69171;BME280;56279;47.902;12.308;2023-03-13T03:38:12;95047.41;;;3.05;90.68
69171;BME280;56279;47.902;12.308;2023-03-13T03:40:38;95052.63;;;3.05;90.55
69171;BME280;56279;47.902;12.308;2023-03-13T03:42:45;95047.56;;;2.99;90.93
69171;BME280;56279;47.902;12.308;2023-03-13T03:44:47;95053.69;;;2.93;90.57
69171;BME280;56279;47.902;12.308;2023-03-13T03:46:49;95057.00;;;2.88;91.22
69171;BME280;56279;47.902;12.308;2023-03-13T03:48:51;95055.66;;;2.86;90.83
69171;BME280;56279;47.902;12.308;2023-03-13T03:50:52;95042.09;;;2.84;91.45
69171;BME280;56279;47.902;12.308;2023-03-13T03:52:55;95051.72;;;2.83;91.00
69171;BME280;56279;47.902;12.308;2023-03-13T03:54:59;95049.09;;;2.83;90.89
69171;BME280;56279;47.902;12.308;2023-03-13T03:57:01;95052.28;;;2.85;90.84
69171;BME280;56279;47.902;12.308;2023-03-13T03:59:06;95054.97;;;2.90;91.19
69171;BME280;56279;47.902;12.308;2023-03-13T04:01:18;95061.78;;;2.91;91.53
69171;BME280;56279;47.902;12.308;2023-03-13T04:03:19;95060.00;;;2.97;91.21
69171;BME280;56279;47.902;12.308;2023-03-13T04:05:22;95059.56;;;3.00;91.24
69171;BME280;56279;47.902;12.308;2023-03-13T04:07:24;95053.88;;;3.03;90.94
69171;BME280;56279;47.902;12.308;2023-03-13T04:09:27;95048.19;;;3.06;91.20
69171;BME280;56279;47.902;12.308;2023-03-13T04:11:31;95051.13;;;3.09;90.79
69171;BME280;56279;47.902;12.308;2023-03-13T04:13:37;95047.25;;;3.12;91.26
69171;BME280;56279;47.902;12.308;2023-03-13T04:15:40;95037.13;;;3.15;91.25
69171;BME280;56279;47.902;12.308;2023-03-13T04:17:47;95034.84;;;3.19;91.29
69171;BME280;56279;47.902;12.308;2023-03-13T04:19:54;95041.41;;;3.21;91.36
69171;BME280;56279;47.902;12.308;2023-03-13T04:21:55;95037.75;;;3.22;91.09
69171;BME280;56279;47.902;12.308;2023-03-13T04:23:57;95034.94;;;3.24;91.09
69171;BME280;56279;47.902;12.308;2023-03-13T04:26:00;95037.28;;;3.25;91.09
69171;BME280;56279;47.902;12.308;2023-03-13T04:28:01;95039.44;;;3.28;91.62
69171;BME280;56279;47.902;12.308;2023-03-13T04:30:10;95030.34;;;3.31;91.44
69171;BME280;56279;47.902;12.308;2023-03-13T04:32:32;95021.00;;;3.35;91.47
69171;BME280;56279;47.902;12.308;2023-03-13T04:35:01;95017.69;;;3.39;91.51
69171;BME280;56279;47.902;12.308;2023-03-13T04:37:24;95006.78;;;3.42;91.58
69171;BME280;56279;47.902;12.308;2023-03-13T04:39:41;95003.91;;;3.44;91.48
69171;BME280;56279;47.902;12.308;2023-03-13T04:42:18;94999.03;;;3.47;91.46
69171;BME280;56279;47.902;12.308;2023-03-13T04:44:41;94996.97;;;3.49;91.43
69171;BME280;56279;47.902;12.308;2023-03-13T04:47:05;94990.53;;;3.57;91.52
69171;BME280;56279;47.902;12.308;2023-03-13T04:49:24;94983.56;;;3.63;91.22
69171;BME280;56279;47.902;12.308;2023-03-13T04:51:42;94988.38;;;3.71;90.81
69171;BME280;56279;47.902;12.308;2023-03-13T04:54:01;94986.91;;;3.80;91.19
69171;BME280;56279;47.902;12.308;2023-03-13T04:56:24;94976.84;;;3.88;91.04
69171;BME280;56279;47.902;12.308;2023-03-13T04:58:48;94973.00;;;3.96;90.47
69171;BME280;56279;47.902;12.308;2023-03-13T05:01:11;94973.34;;;4.04;90.14
69171;BME280;56279;47.902;12.308;2023-03-13T05:03:45;94971.34;;;4.11;90.29
69171;BME280;56279;47.902;12.308;2023-03-13T05:06:18;94965.72;;;4.19;89.56
69171;BME280;56279;47.902;12.308;2023-03-13T05:08:48;94949.56;;;4.28;88.73
69171;BME280;56279;47.902;12.308;2023-03-13T05:11:11;94950.72;;;4.37;88.45
69171;BME280;56279;47.902;12.308;2023-03-13T05:13:32;94947.94;;;4.48;88.11
69171;BME280;56279;47.902;12.308;2023-03-13T05:15:50;94941.47;;;4.56;87.47
69171;BME280;56279;47.902;12.308;2023-03-13T05:18:09;94933.69;;;4.61;87.17
69171;BME280;56279;47.902;12.308;2023-03-13T05:20:31;94927.72;;;4.65;86.80
69171;BME280;56279;47.902;12.308;2023-03-13T05:22:55;94924.34;;;4.70;86.47
69171;BME280;56279;47.902;12.308;2023-03-13T05:25:26;94919.97;;;4.75;86.16
69171;BME280;56279;47.902;12.308;2023-03-13T05:27:50;94918.69;;;4.78;85.87
69171;BME280;56279;47.902;12.308;2023-03-13T05:30:08;94920.78;;;4.81;85.52
69171;BME280;56279;47.902;12.308;2023-03-13T05:32:17;94914.53;;;4.82;85.75
69171;BME280;56279;47.902;12.308;2023-03-13T05:34:21;94916.13;;;4.83;85.45
69171;BME280;56279;47.902;12.308;2023-03-13T05:36:55;94901.72;;;4.85;85.28
69171;BME280;56279;47.902;12.308;2023-03-13T05:39:25;94897.06;;;4.93;85.13
69171;BME280;56279;47.902;12.308;2023-03-13T05:41:46;94896.88;;;4.99;84.78
69171;BME280;56279;47.902;12.308;2023-03-13T05:44:05;94892.44;;;5.05;84.69
69171;BME280;56279;47.902;12.308;2023-03-13T05:46:25;94893.28;;;5.10;84.28
69171;BME280;56279;47.902;12.308;2023-03-13T05:48:49;94892.25;;;5.16;84.07
69171;BME280;56279;47.902;12.308;2023-03-13T05:51:02;94888.88;;;5.21;84.07
69171;BME280;56279;47.902;12.308;2023-03-13T05:53:28;94886.28;;;5.26;83.62
69171;BME280;56279;47.902;12.308;2023-03-13T05:56:01;94876.66;;;5.31;83.38
69171;BME280;56279;47.902;12.308;2023-03-13T06:01:49;94874.06;;;5.41;83.10
69171;BME280;56279;47.902;12.308;2023-03-13T06:04:06;94863.59;;;5.41;83.02
69171;BME280;56279;47.902;12.308;2023-03-13T06:06:10;94868.31;;;5.44;82.85
69171;BME280;56279;47.902;12.308;2023-03-13T06:08:22;94868.88;;;5.51;82.74
69171;BME280;56279;47.902;12.308;2023-03-13T06:10:24;94871.25;;;5.58;82.41
69171;BME280;56279;47.902;12.308;2023-03-13T06:12:26;94863.94;;;5.65;82.11
69171;BME280;56279;47.902;12.308;2023-03-13T06:14:27;94868.44;;;5.75;81.72
69171;BME280;56279;47.902;12.308;2023-03-13T06:16:44;94865.31;;;5.83;81.96
69171;BME280;56279;47.902;12.308;2023-03-13T06:18:49;94869.31;;;5.90;82.00
69171;BME280;56279;47.902;12.308;2023-03-13T06:20:56;94874.81;;;5.94;81.94
69171;BME280;56279;47.902;12.308;2023-03-13T06:23:03;94871.69;;;5.97;81.65
69171;BME280;56279;47.902;12.308;2023-03-13T06:25:05;94875.63;;;5.99;82.07
69171;BME280;56279;47.902;12.308;2023-03-13T06:27:07;94865.66;;;6.01;81.86
69171;BME280;56279;47.902;12.308;2023-03-13T06:29:11;94857.28;;;6.04;81.71
69171;BME280;56279;47.902;12.308;2023-03-13T06:31:12;94843.66;;;6.07;81.77
69171;BME280;56279;47.902;12.308;2023-03-13T06:33:20;94848.91;;;6.12;81.45
69171;BME280;56279;47.902;12.308;2023-03-13T06:35:24;94854.41;;;6.21;81.23
69171;BME280;56279;47.902;12.308;2023-03-13T06:37:25;94839.50;;;6.26;80.48
69171;BME280;56279;47.902;12.308;2023-03-13T06:39:26;94837.41;;;6.28;80.66
69171;BME280;56279;47.902;12.308;2023-03-13T06:41:28;94824.81;;;6.31;80.15
69171;BME280;56279;47.902;12.308;2023-03-13T06:43:31;94834.78;;;6.34;79.90
69171;BME280;56279;47.902;12.308;2023-03-13T06:45:41;94834.25;;;6.37;79.46
69171;BME280;56279;47.902;12.308;2023-03-13T06:48:07;94824.81;;;6.41;79.62
69171;BME280;56279;47.902;12.308;2023-03-13T06:50:09;94825.06;;;6.44;78.93
69171;BME280;56279;47.902;12.308;2023-03-13T06:52:10;94820.91;;;6.48;78.95
69171;BME280;56279;47.902;12.308;2023-03-13T06:54:12;94809.88;;;6.56;78.49
69171;BME280;56279;47.902;12.308;2023-03-13T06:56:16;94809.06;;;6.66;78.45
69171;BME280;56279;47.902;12.308;2023-03-13T06:58:30;94808.78;;;6.77;77.43
69171;BME280;56279;47.902;12.308;2023-03-13T07:00:31;94813.50;;;6.90;77.06
69171;BME280;56279;47.902;12.308;2023-03-13T07:02:37;94813.97;;;7.03;77.35
69171;BME280;56279;47.902;12.308;2023-03-13T07:04:44;94809.22;;;7.15;76.95
69171;BME280;56279;47.902;12.308;2023-03-13T07:06:53;94816.03;;;7.26;76.62
69171;BME280;56279;47.902;12.308;2023-03-13T07:08:57;94806.00;;;7.33;77.03
69171;BME280;56279;47.902;12.308;2023-03-13T07:11:01;94811.50;;;7.36;76.90
69171;BME280;56279;47.902;12.308;2023-03-13T07:13:05;94809.91;;;7.40;76.69
69171;BME280;56279;47.902;12.308;2023-03-13T07:15:12;94799.66;;;7.44;76.51
69171;BME280;56279;47.902;12.308;2023-03-13T07:17:18;94797.28;;;7.47;76.50
69171;BME280;56279;47.902;12.308;2023-03-13T07:19:34;94806.75;;;7.48;76.51
69171;BME280;56279;47.902;12.308;2023-03-13T07:21:36;94820.09;;;7.52;76.44
69171;BME280;56279;47.902;12.308;2023-03-13T07:23:39;94811.41;;;7.56;76.72
69171;BME280;56279;47.902;12.308;2023-03-13T07:25:52;94804.31;;;7.62;76.18
69171;BME280;56279;47.902;12.308;2023-03-13T07:27:54;94807.13;;;7.71;76.61
69171;BME280;56279;47.902;12.308;2023-03-13T07:30:01;94809.22;;;7.79;75.93
69171;BME280;56279;47.902;12.308;2023-03-13T07:32:02;94834.13;;;7.86;76.10
69171;BME280;56279;47.902;12.308;2023-03-13T07:34:13;94837.03;;;7.80;76.04
69171;BME280;56279;47.902;12.308;2023-03-13T07:36:16;94823.72;;;7.66;76.67
69171;BME280;56279;47.902;12.308;2023-03-13T07:38:18;94837.94;;;7.55;76.94
69171;BME280;56279;47.902;12.308;2023-03-13T07:40:20;94837.97;;;7.50;76.92
69171;BME280;56279;47.902;12.308;2023-03-13T07:42:21;94852.66;;;7.51;77.10
69171;BME280;56279;47.902;12.308;2023-03-13T07:44:22;94847.94;;;7.48;77.10
69171;BME280;56279;47.902;12.308;2023-03-13T07:46:25;94837.22;;;7.39;77.50
69171;BME280;56279;47.902;12.308;2023-03-13T07:48:38;94826.47;;;7.31;77.91
69171;BME280;56279;47.902;12.308;2023-03-13T07:50:40;94813.66;;;7.24;78.02
69171;BME280;56279;47.902;12.308;2023-03-13T07:52:41;94764.84;;;7.23;78.16
69171;BME280;56279;47.902;12.308;2023-03-13T07:54:47;94813.66;;;7.24;78.91
69171;BME280;56279;47.902;12.308;2023-03-13T07:56:51;94801.84;;;7.27;78.58
69171;BME280;56279;47.902;12.308;2023-03-13T07:58:53;94786.34;;;7.30;78.26
69171;BME280;56279;47.902;12.308;2023-03-13T08:00:54;94789.47;;;7.37;78.90
69171;BME280;56279;47.902;12.308;2023-03-13T08:02:55;94793.09;;;7.46;78.24
69171;BME280;56279;47.902;12.308;2023-03-13T08:04:57;94811.16;;;7.58;78.35
69171;BME280;56279;47.902;12.308;2023-03-13T08:06:58;94840.53;;;7.65;78.16
69171;BME280;56279;47.902;12.308;2023-03-13T08:09:00;94831.88;;;7.64;78.62
69171;BME280;56279;47.902;12.308;2023-03-13T08:11:05;94844.47;;;7.62;78.72
69171;BME280;56279;47.902;12.308;2023-03-13T08:13:09;94826.09;;;7.62;78.66
69171;BME280;56279;47.902;12.308;2023-03-13T08:15:10;94810.59;;;7.61;78.68
69171;BME280;56279;47.902;12.308;2023-03-13T08:17:13;94827.41;;;7.65;79.32
69171;BME280;56279;47.902;12.308;2023-03-13T08:19:51;94815.28;;;7.69;79.21
69171;BME280;56279;47.902;12.308;2023-03-13T08:21:53;94808.47;;;7.68;79.28
69171;BME280;56279;47.902;12.308;2023-03-13T08:23:58;94809.25;;;7.68;78.96
69171;BME280;56279;47.902;12.308;2023-03-13T08:26:01;94803.78;;;7.65;79.03
69171;BME280;56279;47.902;12.308;2023-03-13T08:28:06;94805.59;;;7.64;79.30
69171;BME280;56279;47.902;12.308;2023-03-13T08:30:17;94818.72;;;7.70;79.10
69171;BME280;56279;47.902;12.308;2023-03-13T08:32:20;94825.78;;;7.74;78.85
69171;BME280;56279;47.902;12.308;2023-03-13T08:34:22;94837.31;;;7.78;78.68
69171;BME280;56279;47.902;12.308;2023-03-13T08:36:25;94835.44;;;7.84;78.41
69171;BME280;56279;47.902;12.308;2023-03-13T08:38:38;94820.44;;;7.89;78.50
69171;BME280;56279;47.902;12.308;2023-03-13T08:40:48;94811.47;;;7.95;78.01
69171;BME280;56279;47.902;12.308;2023-03-13T08:42:53;94796.44;;;8.01;78.48
69171;BME280;56279;47.902;12.308;2023-03-13T08:44:54;94792.47;;;8.08;78.09
69171;BME280;56279;47.902;12.308;2023-03-13T08:46:57;94793.19;;;8.19;78.37
69171;BME280;56279;47.902;12.308;2023-03-13T08:49:00;94807.56;;;8.31;78.28
69171;BME280;56279;47.902;12.308;2023-03-13T08:51:34;94778.28;;;8.43;78.50
69171;BME280;56279;47.902;12.308;2023-03-13T08:53:51;94780.88;;;8.48;78.35
69171;BME280;56279;47.902;12.308;2023-03-13T08:56:02;94780.53;;;8.55;78.74
69171;BME280;56279;47.902;12.308;2023-03-13T09:01:33;94775.16;;;8.70;78.88
69171;BME280;56279;47.902;12.308;2023-03-13T09:03:53;94783.56;;;8.72;78.83
69171;BME280;56279;47.902;12.308;2023-03-13T09:06:16;94760.09;;;8.75;78.98
69171;BME280;56279;47.902;12.308;2023-03-13T09:08:27;94750.91;;;8.73;78.43
69171;BME280;56279;47.902;12.308;2023-03-13T09:11:06;94764.84;;;8.73;78.54
69171;BME280;56279;47.902;12.308;2023-03-13T09:13:07;94756.16;;;8.73;78.33
69171;BME280;56279;47.902;12.308;2023-03-13T09:15:09;94749.91;;;8.69;78.84
69171;BME280;56279;47.902;12.308;2023-03-13T09:17:10;94755.94;;;8.69;79.00
69171;BME280;56279;47.902;12.308;2023-03-13T09:19:14;94768.56;;;8.72;78.58
69171;BME280;56279;47.902;12.308;2023-03-13T09:21:21;94777.75;;;8.75;79.15
69171;BME280;56279;47.902;12.308;2023-03-13T09:23:34;94792.19;;;8.77;79.11
69171;BME280;56279;47.902;12.308;2023-03-13T09:25:37;94802.78;;;8.67;79.12
69171;BME280;56279;47.902;12.308;2023-03-13T09:27:39;94811.59;;;8.53;79.37
69171;BME280;56279;47.902;12.308;2023-03-13T09:29:41;94819.31;;;8.44;79.21
69171;BME280;56279;47.902;12.308;2023-03-13T09:31:45;94821.72;;;8.35;79.79
69171;BME280;56279;47.902;12.308;2023-03-13T09:33:48;94808.38;;;8.27;80.48
69171;BME280;56279;47.902;12.308;2023-03-13T09:35:49;94813.41;;;8.18;80.78
69171;BME280;56279;47.902;12.308;2023-03-13T09:37:51;94827.63;;;8.12;80.85
69171;BME280;56279;47.902;12.308;2023-03-13T09:39:53;94830.84;;;8.09;81.17
69171;BME280;56279;47.902;12.308;2023-03-13T09:42:27;94814.03;;;8.05;81.42
69171;BME280;56279;47.902;12.308;2023-03-13T09:44:37;94805.59;;;8.08;81.66
69171;BME280;56279;47.902;12.308;2023-03-13T09:48:57;94798.44;;;8.19;82.43
69171;BME280;56279;47.902;12.308;2023-03-13T09:51:45;94782.09;;;8.27;82.32
69171;BME280;56279;47.902;12.308;2023-03-13T09:55:56;94750.91;;;8.49;82.60
69171;BME280;56279;47.902;12.308;2023-03-13T09:58:03;94748.94;;;8.60;82.97
69171;BME280;56279;47.902;12.308;2023-03-13T10:02:37;94741.13;;;8.78;82.75
69171;BME280;56279;47.902;12.308;2023-03-13T10:04:46;94742.31;;;8.91;81.90
69171;BME280;56279;47.902;12.308;2023-03-13T10:06:49;94738.50;;;9.02;81.71
69171;BME280;56279;47.902;12.308;2023-03-13T10:08:53;94746.50;;;9.16;81.46
69171;BME280;56279;47.902;12.308;2023-03-13T10:11:06;94743.63;;;9.36;81.28
69171;BME280;56279;47.902;12.308;2023-03-13T10:15:43;94734.03;;;9.82;80.73
69171;BME280;56279;47.902;12.308;2023-03-13T10:17:48;94727.03;;;10.10;80.29
69171;BME280;56279;47.902;12.308;2023-03-13T10:20:02;94721.16;;;10.31;80.32
69171;BME280;56279;47.902;12.308;2023-03-13T10:22:18;94721.31;;;10.54;79.60
69171;BME280;56279;47.902;12.308;2023-03-13T10:24:32;94716.16;;;10.76;79.05
69171;BME280;56279;47.902;12.308;2023-03-13T10:26:45;94707.06;;;10.82;78.21
69171;BME280;56279;47.902;12.308;2023-03-13T10:28:47;94705.13;;;10.87;77.86
69171;BME280;56279;47.902;12.308;2023-03-13T10:31:22;94704.50;;;11.04;77.37
69171;BME280;56279;47.902;12.308;2023-03-13T10:33:28;94700.78;;;11.19;76.49
69171;BME280;56279;47.902;12.308;2023-03-13T10:35:33;94709.59;;;11.28;75.80
69171;BME280;56279;47.902;12.308;2023-03-13T10:37:42;94716.63;;;11.32;75.09
69171;BME280;56279;47.902;12.308;2023-03-13T10:39:51;94719.16;;;11.37;74.84
69171;BME280;56279;47.902;12.308;2023-03-13T10:42:09;94715.84;;;11.45;74.73
69171;BME280;56279;47.902;12.308;2023-03-13T10:44:23;94711.41;;;11.54;75.04
69171;BME280;56279;47.902;12.308;2023-03-13T10:46:31;94704.50;;;11.67;73.79
69171;BME280;56279;47.902;12.308;2023-03-13T10:48:35;94699.50;;;11.79;73.16
69171;BME280;56279;47.902;12.308;2023-03-13T10:50:44;94687.94;;;11.89;72.69
69171;BME280;56279;47.902;12.308;2023-03-13T10:52:47;94679.94;;;12.02;72.96
69171;BME280;56279;47.902;12.308;2023-03-13T10:54:49;94670.53;;;12.18;72.25
69171;BME280;56279;47.902;12.308;2023-03-13T10:56:51;94669.75;;;12.40;72.09
69171;BME280;56279;47.902;12.308;2023-03-13T10:59:42;94674.25;;;12.70;71.88
69171;BME280;56279;47.902;12.308;2023-03-13T11:01:44;94672.78;;;12.95;70.96
69171;BME280;56279;47.902;12.308;2023-03-13T11:03:50;94668.19;;;13.18;69.96
69171;BME280;56279;47.902;12.308;2023-03-13T11:06:02;94658.44;;;13.44;69.67
69171;BME280;56279;47.902;12.308;2023-03-13T11:08:20;94665.44;;;13.65;68.71
69171;BME280;56279;47.902;12.308;2023-03-13T11:10:25;94665.31;;;13.79;67.80
69171;BME280;56279;47.902;12.308;2023-03-13T11:12:45;94667.47;;;13.94;66.95
69171;BME280;56279;47.902;12.308;2023-03-13T11:14:58;94658.25;;;14.09;66.67
69171;BME280;56279;47.902;12.308;2023-03-13T11:35:58;94622.47;;;14.78;62.15
69171;BME280;56279;47.902;12.308;2023-03-13T11:43:17;94609.13;;;14.87;60.18
69171;BME280;56279;47.902;12.308;2023-03-13T11:45:54;94621.66;;;14.86;60.32
69171;BME280;56279;47.902;12.308;2023-03-13T11:48:25;94614.34;;;14.83;59.00
69171;BME280;56279;47.902;12.308;2023-03-13T11:57:50;94597.94;;;14.81;59.15
69171;BME280;56279;47.902;12.308;2023-03-13T12:04:21;94619.28;;;14.93;57.92
69171;BME280;56279;47.902;12.308;2023-03-13T12:06:32;94614.59;;;14.90;57.10
69171;BME280;56279;47.902;12.308;2023-03-13T12:08:40;94606.81;;;14.85;57.77
69171;BME280;56279;47.902;12.308;2023-03-13T12:10:47;94619.81;;;14.78;57.59
69171;BME280;56279;47.902;12.308;2023-03-13T12:13:06;94607.16;;;14.75;58.04
69171;BME280;56279;47.902;12.308;2023-03-13T12:17:34;94585.28;;;14.78;58.39
69171;BME280;56279;47.902;12.308;2023-03-13T12:19:50;94586.66;;;14.84;58.05